Time;durP1;ratioP1;P1;durP2;ratioP2;P2;SDS_P1;SDS_P2;PMS_P1;PMS_P2;Temp;Humidity;BMP_temperature;BMP_pressure;BME280_temperature;BME280_humidity;BME280_pressure;Samples;Min_cycle;Max_cycle;Signal;HPM_P1;HPM_P2
2021/05/28 00:01:29;;;;;;;;;;;10.40;99.90;;;;;;5094931;28;19920;-65
2021/05/28 00:03:58;;;;;;;;;;;10.30;99.90;;;;;;5095759;28;20298;-65
2021/05/28 00:06:25;;;;;;;;;;;10.20;99.90;;;;;;5095912;28;19927;-64
2021/05/28 00:08:54;;;;;;;;;;;10.10;99.90;;;;;;5095676;28;19973;-64
2021/05/28 00:11:22;;;;;;;;;;;10.10;99.90;;;;;;5077178;28;19965;-64
2021/05/28 00:13:51;;;;;;;;;;;10.10;99.90;;;;;;5095243;28;19920;-65
2021/05/28 00:16:19;;;;;;;;;;;10.10;99.90;;;;;;5093337;28;19924;-67
2021/05/28 00:18:46;;;;;;;;;;;10.00;99.90;;;;;;5095178;28;19920;-67
2021/05/28 00:21:14;;;;;;;;;;;10.00;99.90;;;;;;5060247;28;19951;-65
2021/05/28 00:23:42;;;;;;;;;;;9.90;99.90;;;;;;5095620;28;19927;-65
2021/05/28 00:26:10;;;;;;;;;;;9.90;99.90;;;;;;5077642;28;20360;-65
2021/05/28 00:28:42;;;;;;;;;;;9.80;99.90;;;;;;5095580;28;19920;-64
2021/05/28 00:31:12;;;;;;;;;;;9.80;99.90;;;;;;5076020;28;20003;-64
2021/05/28 00:33:39;;;;;;;;;;;9.80;99.90;;;;;;5095366;28;19919;-64
2021/05/28 00:36:07;;;;;;;;;;;9.80;99.90;;;;;;5077701;28;19924;-68
2021/05/28 00:38:35;;;;;;;;;;;9.80;99.90;;;;;;5077820;28;20023;-67
2021/05/28 00:41:03;;;;;;;;;;;9.80;99.90;;;;;;5096202;28;19920;-65
2021/05/28 00:43:32;;;;;;;;;;;9.80;99.90;;;;;;5105279;28;19926;-65
2021/05/28 00:46:00;;;;;;;;;;;9.80;99.90;;;;;;5109317;28;19930;-65
2021/05/28 00:48:28;;;;;;;;;;;9.80;99.90;;;;;;5108216;28;19920;-64
2021/05/28 00:50:56;;;;;;;;;;;9.80;99.90;;;;;;5105679;28;19970;-66
2021/05/28 00:53:25;;;;;;;;;;;9.70;99.90;;;;;;5107272;28;20367;-66
2021/05/28 00:55:53;;;;;;;;;;;9.70;99.90;;;;;;5103142;28;20292;-66
2021/05/28 00:58:21;;;;;;;;;;;9.70;99.90;;;;;;5104581;28;20410;-66
2021/05/28 01:00:49;;;;;;;;;;;9.70;99.90;;;;;;5103799;28;19975;-66
2021/05/28 01:03:18;;;;;;;;;;;9.70;99.90;;;;;;5104874;28;19983;-67
2021/05/28 01:08:38;;;;;;;;;;;9.70;99.90;;;;;;5107603;28;20005;-67
2021/05/28 01:11:06;;;;;;;;;;;9.70;99.90;;;;;;5098029;28;19924;-66
2021/05/28 01:13:33;;;;;;;;;;;9.70;99.90;;;;;;5095923;28;19943;-65
2021/05/28 01:16:02;;;;;;;;;;;9.70;99.90;;;;;;5094094;28;19962;-64
2021/05/28 01:18:32;;;;;;;;;;;9.60;99.90;;;;;;5077043;28;19927;-63
2021/05/28 01:21:00;;;;;;;;;;;9.60;99.90;;;;;;5094777;28;20283;-65
2021/05/28 01:23:28;;;;;;;;;;;9.60;99.90;;;;;;5094693;28;19920;-64
2021/05/28 01:25:56;;;;;;;;;;;9.50;99.90;;;;;;5094951;28;19927;-64
2021/05/28 01:28:25;;;;;;;;;;;9.60;99.90;;;;;;5096086;28;20397;-64
2021/05/28 01:30:53;;;;;;;;;;;9.60;99.90;;;;;;5094480;28;19920;-65
2021/05/28 01:33:21;;;;;;;;;;;9.50;99.90;;;;;;5105492;28;19931;-65
2021/05/28 01:35:49;;;;;;;;;;;9.50;99.90;;;;;;5100145;28;19942;-65
2021/05/28 01:38:16;;;;;;;;;;;9.50;99.90;;;;;;5119022;28;19965;-64
2021/05/28 01:40:45;;;;;;;;;;;9.50;99.90;;;;;;5117224;28;19919;-65
2021/05/28 01:43:13;;;;;;;;;;;9.50;99.90;;;;;;5117855;28;20275;-65
2021/05/28 01:45:40;;;;;;;;;;;9.50;99.90;;;;;;5117625;28;19908;-65
2021/05/28 01:48:10;;;;;;;;;;;9.50;99.90;;;;;;5118168;28;19949;-65
2021/05/28 01:50:44;;;;;;;;;;;9.60;99.90;;;;;;5116698;28;20215;-65
2021/05/28 01:53:12;;;;;;;;;;;9.70;99.90;;;;;;5118953;28;19992;-65
2021/05/28 01:55:40;;;;;;;;;;;9.70;99.90;;;;;;5115116;28;19920;-65
2021/05/28 01:58:11;;;;;;;;;;;9.80;99.90;;;;;;5103083;28;19920;-64
2021/05/28 02:00:41;;;;;;;;;;;9.90;99.90;;;;;;5099906;28;20333;-65
2021/05/28 02:03:09;;;;;;;;;;;9.90;99.90;;;;;;5100180;28;19973;-65
2021/05/28 02:05:37;;;;;;;;;;;9.90;99.90;;;;;;5082927;28;19928;-65
2021/05/28 02:08:05;;;;;;;;;;;9.90;99.90;;;;;;5100028;28;20011;-65
2021/05/28 02:10:33;;;;;;;;;;;10.00;99.90;;;;;;5099774;28;20296;-65
2021/05/28 02:13:01;;;;;;;;;;;10.00;99.90;;;;;;5099117;28;19951;-65
2021/05/28 02:15:30;;;;;;;;;;;10.00;99.90;;;;;;5076353;28;19956;-65
2021/05/28 02:17:58;;;;;;;;;;;10.00;99.90;;;;;;5078453;28;19927;-64
2021/05/28 02:20:29;;;;;;;;;;;10.00;99.90;;;;;;5077936;28;20220;-64
2021/05/28 02:22:57;;;;;;;;;;;10.00;99.90;;;;;;5078783;28;19963;-65
2021/05/28 02:25:25;;;;;;;;;;;10.00;99.90;;;;;;5078720;28;19924;-64
2021/05/28 02:27:53;;;;;;;;;;;10.00;99.90;;;;;;5078778;28;20273;-65
2021/05/28 02:30:46;;;;;;;;;;;10.00;99.90;;;;;;5080303;28;19929;-65
2021/05/28 02:33:15;;;;;;;;;;;10.00;99.90;;;;;;5080513;28;20018;-64
2021/05/28 02:35:42;;;;;;;;;;;9.90;99.90;;;;;;5098532;28;19924;-67
2021/05/28 02:38:12;;;;;;;;;;;9.80;99.90;;;;;;5080359;28;20340;-64
2021/05/28 02:40:40;;;;;;;;;;;9.70;99.90;;;;;;5098263;28;20034;-65
2021/05/28 02:43:08;;;;;;;;;;;9.70;99.90;;;;;;5079466;28;20372;-64
2021/05/28 02:45:35;;;;;;;;;;;9.60;99.90;;;;;;5097195;28;20422;-65
2021/05/28 02:48:06;;;;;;;;;;;9.50;99.90;;;;;;5098846;28;19930;-64
2021/05/28 02:50:35;;;;;;;;;;;9.40;99.90;;;;;;5099621;28;20276;-65
2021/05/28 02:53:03;;;;;;;;;;;9.40;99.90;;;;;;5111762;28;19936;-65
2021/05/28 02:55:31;;;;;;;;;;;9.40;99.90;;;;;;5112271;28;19924;-65
2021/05/28 02:57:58;;;;;;;;;;;9.30;99.90;;;;;;5098219;28;20360;-65
2021/05/28 03:00:27;;;;;;;;;;;9.30;99.90;;;;;;5096930;28;19924;-64
2021/05/28 03:02:58;;;;;;;;;;;9.40;99.90;;;;;;5097257;28;19924;-64
2021/05/28 03:05:25;;;;;;;;;;;9.50;99.90;;;;;;5097397;28;20007;-64
2021/05/28 03:07:54;;;;;;;;;;;9.50;99.90;;;;;;5099370;28;19947;-64
2021/05/28 03:10:22;;;;;;;;;;;9.50;99.90;;;;;;5096440;28;20453;-67
2021/05/28 03:12:50;;;;;;;;;;;9.50;99.90;;;;;;5096595;28;19999;-66
2021/05/28 03:15:17;;;;;;;;;;;9.50;99.90;;;;;;5095724;28;19956;-65
2021/05/28 03:17:46;;;;;;;;;;;9.60;99.90;;;;;;5096442;28;19927;-65
2021/05/28 03:20:21;;;;;;;;;;;9.60;99.90;;;;;;5095665;28;20003;-64
2021/05/28 03:22:54;;;;;;;;;;;9.60;99.90;;;;;;5096246;28;19924;-64
2021/05/28 03:25:22;;;;;;;;;;;9.70;99.90;;;;;;5096199;28;20279;-65
2021/05/28 03:27:50;;;;;;;;;;;9.80;99.90;;;;;;5078888;28;19928;-65
2021/05/28 03:30:43;;;;;;;;;;;9.90;99.90;;;;;;5095285;28;19993;-65
2021/05/28 03:33:11;;;;;;;;;;;10.10;99.90;;;;;;5096161;28;19925;-64
2021/05/28 03:35:39;;;;;;;;;;;10.10;99.90;;;;;;5078971;28;19931;-65
2021/05/28 03:38:13;;;;;;;;;;;10.20;99.90;;;;;;5096566;28;19924;-65
2021/05/28 03:40:41;;;;;;;;;;;10.20;99.90;;;;;;5077783;28;20355;-64
2021/05/28 03:43:09;;;;;;;;;;;10.20;99.90;;;;;;5095997;28;19924;-65
2021/05/28 03:45:37;;;;;;;;;;;10.20;99.90;;;;;;5094718;28;19924;-65
2021/05/28 03:48:05;;;;;;;;;;;10.30;99.90;;;;;;5077446;28;20027;-67
2021/05/28 03:50:33;;;;;;;;;;;10.30;99.90;;;;;;5095836;28;19924;-65
2021/05/28 03:53:01;;;;;;;;;;;10.20;99.90;;;;;;5095495;28;19928;-65
2021/05/28 03:55:29;;;;;;;;;;;10.20;99.90;;;;;;5094526;28;19924;-65
2021/05/28 03:57:57;;;;;;;;;;;10.20;99.90;;;;;;5095766;28;19931;-65
2021/05/28 04:00:26;;;;;;;;;;;10.30;99.90;;;;;;5094536;28;20350;-65
2021/05/28 04:02:54;;;;;;;;;;;10.40;99.90;;;;;;5095659;28;20016;-65
2021/05/28 04:05:22;;;;;;;;;;;10.50;99.90;;;;;;5095420;28;20390;-65
2021/05/28 04:07:50;;;;;;;;;;;10.50;99.90;;;;;;5095965;28;19924;-66
2021/05/28 04:10:18;;;;;;;;;;;10.50;99.90;;;;;;5077944;28;19946;-64
2021/05/28 04:12:46;;;;;;;;;;;10.40;99.90;;;;;;5077697;28;19924;-64
2021/05/28 04:15:14;;;;;;;;;;;10.50;99.90;;;;;;5077374;28;20280;-68
2021/05/28 04:17:44;;;;;;;;;;;10.60;99.90;;;;;;5077352;28;19924;-64
2021/05/28 04:20:13;;;;;;;;;;;10.60;99.90;;;;;;5061358;28;20364;-67
2021/05/28 04:22:41;;;;;;;;;;;10.50;99.90;;;;;;5095475;28;20406;-65
2021/05/28 04:25:09;;;;;;;;;;;10.50;99.90;;;;;;5095979;28;20379;-65
2021/05/28 04:28:03;;;;;;;;;;;10.50;99.90;;;;;;5095198;28;20010;-65
2021/05/28 04:33:24;;;;;;;;;;;10.40;99.90;;;;;;5095901;28;19935;-67
2021/05/28 04:35:52;;;;;;;;;;;10.50;99.90;;;;;;5095104;28;19970;-64
2021/05/28 04:38:20;;;;;;;;;;;10.50;99.90;;;;;;5076891;28;20013;-66
2021/05/28 04:40:51;;;;;;;;;;;10.40;99.90;;;;;;5095299;28;19977;-65
2021/05/28 04:43:19;;;;;;;;;;;10.40;99.90;;;;;;5094978;28;19938;-64
2021/05/28 04:45:47;;;;;;;;;;;10.30;99.90;;;;;;5076231;28;19924;-64
2021/05/28 04:48:15;;;;;;;;;;;10.50;99.90;;;;;;5094932;28;20429;-67
2021/05/28 04:50:43;;;;;;;;;;;10.60;99.90;;;;;;5076577;28;19924;-64
2021/05/28 04:53:11;;;;;;;;;;;10.90;99.90;;;;;;5094844;28;19935;-65
2021/05/28 04:55:39;;;;;;;;;;;11.30;99.90;;;;;;5094908;28;19963;-65
2021/05/28 04:58:07;;;;;;;;;;;11.60;99.90;;;;;;5094646;28;19925;-65
2021/05/28 05:00:36;;;;;;;;;;;11.90;99.90;;;;;;5093717;28;19932;-65
2021/05/28 05:03:03;;;;;;;;;;;11.90;99.90;;;;;;5059764;28;19963;-65
2021/05/28 05:05:31;;;;;;;;;;;11.90;99.90;;;;;;5094576;28;19924;-67
2021/05/28 05:07:59;;;;;;;;;;;11.90;99.90;;;;;;5095199;28;19931;-66
2021/05/28 05:10:27;;;;;;;;;;;11.90;99.90;;;;;;5094843;28;19954;-65
2021/05/28 05:12:55;;;;;;;;;;;11.90;99.90;;;;;;5094238;28;19967;-65
2021/05/28 05:15:22;;;;;;;;;;;11.80;99.90;;;;;;5093654;28;20278;-64
2021/05/28 05:17:51;;;;;;;;;;;11.70;99.90;;;;;;5094445;28;19928;-64
2021/05/28 05:23:12;;;;;;;;;;;11.70;99.90;;;;;;5094364;28;19954;-64
2021/05/28 05:25:40;;;;;;;;;;;11.60;99.90;;;;;;5094850;28;20275;-64
2021/05/28 05:28:07;;;;;;;;;;;11.50;99.90;;;;;;5076096;28;19981;-66
2021/05/28 05:33:28;;;;;;;;;;;12.00;99.90;;;;;;5094930;28;19942;-65
2021/05/28 05:35:56;;;;;;;;;;;12.60;99.90;;;;;;5094096;28;19924;-68
2021/05/28 05:38:24;;;;;;;;;;;12.30;99.90;;;;;;5094510;28;19978;-65
2021/05/28 05:40:52;;;;;;;;;;;12.20;99.90;;;;;;5095309;28;20334;-65
2021/05/28 05:43:20;;;;;;;;;;;12.20;99.90;;;;;;5077766;28;19931;-64
2021/05/28 05:45:47;;;;;;;;;;;12.10;99.90;;;;;;5093851;28;19955;-64
2021/05/28 05:48:16;;;;;;;;;;;11.90;99.90;;;;;;5095925;28;19924;-65
2021/05/28 05:50:44;;;;;;;;;;;12.10;99.90;;;;;;5096080;28;19950;-64
2021/05/28 05:53:13;;;;;;;;;;;12.20;99.90;;;;;;5096504;28;19924;-65
2021/05/28 05:55:40;;;;;;;;;;;12.40;99.90;;;;;;5096135;28;19924;-67
2021/05/28 05:58:08;;;;;;;;;;;12.60;99.90;;;;;;5095369;28;19967;-64
2021/05/28 06:00:36;;;;;;;;;;;12.60;99.90;;;;;;5093882;28;20416;-66
2021/05/28 06:03:04;;;;;;;;;;;12.30;99.90;;;;;;5094865;28;19924;-64
2021/05/28 06:05:31;;;;;;;;;;;12.00;99.90;;;;;;5076953;28;19931;-65
2021/05/28 06:08:02;;;;;;;;;;;12.20;99.90;;;;;;5094822;28;19954;-64
2021/05/28 06:10:29;;;;;;;;;;;12.20;99.90;;;;;;5094845;28;19966;-64
2021/05/28 06:13:01;;;;;;;;;;;12.50;99.90;;;;;;5095868;28;19931;-65
2021/05/28 06:15:29;;;;;;;;;;;12.80;99.90;;;;;;5094437;28;19993;-65
2021/05/28 06:17:57;;;;;;;;;;;13.00;99.90;;;;;;5097607;28;19961;-66
2021/05/28 06:20:29;;;;;;;;;;;13.40;99.90;;;;;;5098109;28;19923;-65
2021/05/28 06:22:57;;;;;;;;;;;13.30;99.90;;;;;;5097975;28;20328;-65
2021/05/28 06:25:26;;;;;;;;;;;13.30;99.90;;;;;;5080587;28;20317;-65
2021/05/28 06:27:55;;;;;;;;;;;13.40;99.90;;;;;;5097680;28;20232;-65
2021/05/28 06:30:47;;;;;;;;;;;13.40;99.90;;;;;;5096620;28;19931;-65
2021/05/28 06:33:16;;;;;;;;;;;12.80;99.90;;;;;;5097867;28;19978;-65
2021/05/28 06:35:43;;;;;;;;;;;13.00;99.90;;;;;;5098787;28;20408;-65
2021/05/28 06:38:11;;;;;;;;;;;13.10;99.90;;;;;;5098116;28;20334;-65
2021/05/28 06:40:41;;;;;;;;;;;13.20;99.90;;;;;;5098109;28;19924;-65
2021/05/28 06:43:09;;;;;;;;;;;13.40;99.90;;;;;;5079388;28;19930;-65
2021/05/28 06:45:38;;;;;;;;;;;13.10;99.90;;;;;;5097100;28;20254;-66
2021/05/28 06:48:08;;;;;;;;;;;13.00;99.90;;;;;;5097493;28;19935;-65
2021/05/28 06:50:39;;;;;;;;;;;13.10;99.90;;;;;;5097098;28;20019;-65
2021/05/28 06:53:31;;;;;;;;;;;12.90;99.90;;;;;;5097369;28;19928;-67
2021/05/28 06:56:00;;;;;;;;;;;13.30;99.90;;;;;;5097242;28;20271;-65
2021/05/28 06:58:29;;;;;;;;;;;13.70;99.90;;;;;;5097384;28;19924;-66
2021/05/28 07:00:56;;;;;;;;;;;13.90;99.90;;;;;;5096059;28;19924;-66
2021/05/28 07:03:26;;;;;;;;;;;13.80;99.90;;;;;;5097599;28;19959;-64
2021/05/28 07:06:19;;;;;;;;;;;13.70;99.90;;;;;;5097683;28;19969;-63
2021/05/28 07:08:47;;;;;;;;;;;13.40;99.90;;;;;;5098022;28;19924;-63
2021/05/28 07:11:16;;;;;;;;;;;13.10;99.90;;;;;;5079839;28;19959;-65
2021/05/28 07:13:44;;;;;;;;;;;13.00;99.90;;;;;;5097871;28;19924;-64
2021/05/28 07:16:12;;;;;;;;;;;13.00;99.90;;;;;;5096465;28;20328;-64
2021/05/28 07:18:40;;;;;;;;;;;12.90;99.90;;;;;;5096673;28;19946;-66
2021/05/28 07:21:07;;;;;;;;;;;12.60;99.90;;;;;;5096929;28;19924;-64
2021/05/28 07:23:35;;;;;;;;;;;12.70;99.90;;;;;;5096540;28;19924;-64
2021/05/28 07:26:03;;;;;;;;;;;13.00;99.90;;;;;;5078649;28;19931;-63
2021/05/28 07:28:31;;;;;;;;;;;12.90;99.90;;;;;;5097539;28;20014;-64
2021/05/28 07:30:59;;;;;;;;;;;12.90;99.90;;;;;;5074268;28;20023;-64
2021/05/28 07:33:27;;;;;;;;;;;12.90;99.90;;;;;;5075913;28;20267;-63
2021/05/28 07:35:55;;;;;;;;;;;12.90;99.90;;;;;;5076562;28;20292;-63
2021/05/28 07:38:23;;;;;;;;;;;12.60;99.90;;;;;;5076225;28;19932;-63
2021/05/28 07:40:51;;;;;;;;;;;12.50;99.90;;;;;;5076084;28;20116;-65
2021/05/28 07:43:18;;;;;;;;;;;12.60;99.90;;;;;;5076835;28;19931;-63
2021/05/28 07:45:50;;;;;;;;;;;12.80;99.90;;;;;;5081214;28;20335;-63
2021/05/28 07:48:19;;;;;;;;;;;12.60;99.90;;;;;;5095985;28;19928;-63
2021/05/28 07:50:48;;;;;;;;;;;12.80;99.90;;;;;;5077682;28;19924;-63
2021/05/28 07:53:42;;;;;;;;;;;12.80;99.90;;;;;;5096062;28;20018;-63
2021/05/28 07:56:10;;;;;;;;;;;13.00;99.90;;;;;;5096231;28;19947;-64
2021/05/28 07:58:39;;;;;;;;;;;13.10;99.90;;;;;;5078536;28;19924;-64
2021/05/28 08:01:08;;;;;;;;;;;13.00;99.90;;;;;;5096344;28;19977;-64
2021/05/28 08:03:35;;;;;;;;;;;13.10;99.90;;;;;;5096314;28;19931;-64
2021/05/28 08:06:06;;;;;;;;;;;13.20;99.90;;;;;;5095499;28;19925;-64
2021/05/28 08:08:35;;;;;;;;;;;13.50;99.90;;;;;;5095470;28;19925;-65
2021/05/28 08:11:03;;;;;;;;;;;13.50;99.90;;;;;;5096480;28;19931;-64
2021/05/28 08:13:30;;;;;;;;;;;13.60;99.90;;;;;;5096758;28;19961;-64
2021/05/28 08:15:59;;;;;;;;;;;14.10;99.90;;;;;;5077363;28;19933;-65
2021/05/28 08:18:29;;;;;;;;;;;14.70;99.90;;;;;;5097648;28;19946;-65
2021/05/28 08:20:57;;;;;;;;;;;15.10;99.90;;;;;;5099183;28;19924;-65
2021/05/28 08:23:24;;;;;;;;;;;15.20;99.90;;;;;;5107490;28;20023;-65
2021/05/28 08:25:53;;;;;;;;;;;15.30;99.90;;;;;;5091814;28;19924;-65
2021/05/28 08:28:20;;;;;;;;;;;15.30;99.90;;;;;;5097915;28;19924;-66
2021/05/28 08:30:49;;;;;;;;;;;15.30;99.90;;;;;;5076168;28;19953;-66
2021/05/28 08:33:17;;;;;;;;;;;15.70;99.90;;;;;;5095937;28;19927;-65
2021/05/28 08:35:46;;;;;;;;;;;16.20;99.90;;;;;;5096260;28;19940;-65
2021/05/28 08:38:14;;;;;;;;;;;17.40;99.90;;;;;;5095717;28;19924;-67
2021/05/28 08:40:42;;;;;;;;;;;20.00;96.10;;;;;;5095077;28;20115;-66
2021/05/28 08:43:11;;;;;;;;;;;20.80;91.50;;;;;;5094851;28;20363;-65
2021/05/28 08:45:39;;;;;;;;;;;20.00;92.00;;;;;;5094020;28;20001;-67
2021/05/28 08:48:08;;;;;;;;;;;19.80;92.80;;;;;;5094882;28;19938;-65
2021/05/28 08:50:36;;;;;;;;;;;19.10;93.10;;;;;;5094741;28;20314;-65
2021/05/28 08:53:05;;;;;;;;;;;18.50;94.30;;;;;;5094679;28;19952;-67
2021/05/28 08:55:34;;;;;;;;;;;18.00;95.10;;;;;;5095449;28;19931;-66
2021/05/28 08:58:05;;;;;;;;;;;17.70;94.90;;;;;;5094828;28;19928;-65
2021/05/28 09:00:33;;;;;;;;;;;17.40;96.50;;;;;;5093575;28;19924;-65
2021/05/28 09:03:15;;;;;;;;;;;17.10;96.50;;;;;;5095124;28;20366;-65
2021/05/28 09:06:08;;;;;;;;;;;16.80;97.70;;;;;;5094807;28;20412;-65
2021/05/28 09:08:37;;;;;;;;;;;16.30;98.50;;;;;;5095853;28;19947;-66
2021/05/28 09:11:06;;;;;;;;;;;16.20;99.70;;;;;;5095077;28;19932;-64
2021/05/28 09:13:34;;;;;;;;;;;16.40;99.50;;;;;;5095114;28;20323;-63
2021/05/28 09:16:09;;;;;;;;;;;16.40;99.50;;;;;;5094154;28;20011;-63
2021/05/28 09:18:41;;;;;;;;;;;16.00;99.40;;;;;;5094746;28;19924;-64
2021/05/28 09:21:10;;;;;;;;;;;16.00;99.90;;;;;;5095365;28;20314;-63
2021/05/28 09:23:38;;;;;;;;;;;15.90;99.90;;;;;;5095612;28;20290;-64
2021/05/28 09:26:06;;;;;;;;;;;16.10;99.90;;;;;;5094806;28;19932;-66
2021/05/28 09:28:38;;;;;;;;;;;16.00;99.90;;;;;;5094973;28;19924;-66
2021/05/28 09:31:09;;;;;;;;;;;15.70;99.90;;;;;;5094354;28;20391;-63
2021/05/28 09:33:37;;;;;;;;;;;15.40;99.90;;;;;;5095475;28;19978;-64
2021/05/28 09:36:06;;;;;;;;;;;15.40;99.90;;;;;;5094794;28;19930;-64
2021/05/28 09:38:34;;;;;;;;;;;15.40;99.90;;;;;;5094596;28;20031;-65
2021/05/28 09:41:04;;;;;;;;;;;15.40;99.90;;;;;;5094283;28;20292;-64
2021/05/28 09:43:32;;;;;;;;;;;15.40;99.90;;;;;;5076590;28;19924;-63
2021/05/28 09:46:01;;;;;;;;;;;15.60;99.90;;;;;;5093411;28;19974;-65
2021/05/28 09:48:29;;;;;;;;;;;15.50;99.90;;;;;;5094676;28;19924;-64
2021/05/28 09:50:59;;;;;;;;;;;15.50;99.90;;;;;;5092870;28;19931;-64
2021/05/28 09:53:34;;;;;;;;;;;15.60;99.90;;;;;;5096597;28;19924;-65
2021/05/28 09:56:17;;;;;;;;;;;15.40;99.90;;;;;;5097509;28;19946;-65
2021/05/28 09:58:55;;;;;;;;;;;15.40;99.90;;;;;;5097361;28;20287;-65
2021/05/28 10:01:23;;;;;;;;;;;15.70;99.90;;;;;;5096852;28;19931;-64
2021/05/28 10:03:59;;;;;;;;;;;15.90;99.90;;;;;;5079973;28;19930;-64
2021/05/28 10:06:27;;;;;;;;;;;15.70;99.90;;;;;;5097726;28;19953;-64
2021/05/28 10:08:56;;;;;;;;;;;15.50;99.90;;;;;;5079623;28;19930;-64
2021/05/28 10:14:19;;;;;;;;;;;15.60;99.90;;;;;;5079107;28;19931;-70
2021/05/28 10:19:21;;;;;;;;;;;15.20;99.90;;;;;;5037094;28;20375;-65
2021/05/28 10:21:49;;;;;;;;;;;15.20;99.90;;;;;;5037897;28;20493;-64
2021/05/28 10:24:16;;;;;;;;;;;15.50;99.90;;;;;;5053399;28;19963;-65
2021/05/28 10:26:44;;;;;;;;;;;15.10;99.90;;;;;;5038254;28;19925;-67
2021/05/28 10:29:13;;;;;;;;;;;14.90;99.90;;;;;;5055013;28;19925;-64
2021/05/28 10:31:55;;;;;;;;;;;14.70;99.90;;;;;;5038779;28;19935;-65
2021/05/28 10:34:24;;;;;;;;;;;14.90;99.90;;;;;;5039619;28;19932;-65
2021/05/28 10:36:52;;;;;;;;;;;15.30;99.90;;;;;;5040076;28;19925;-65
2021/05/28 10:39:20;;;;;;;;;;;16.00;99.90;;;;;;5040729;28;19925;-67
2021/05/28 10:41:50;;;;;;;;;;;16.30;99.90;;;;;;5039727;28;19925;-64
2021/05/28 10:44:21;;;;;;;;;;;16.40;99.90;;;;;;5038821;28;19932;-64
2021/05/28 10:46:54;;;;;;;;;;;16.90;99.20;;;;;;5036801;28;19964;-65
2021/05/28 10:49:36;;;;;;;;;;;17.40;98.60;;;;;;5037024;28;20004;-65
2021/05/28 10:52:12;;;;;;;;;;;17.70;97.80;;;;;;5053447;28;19952;-64
2021/05/28 10:54:41;;;;;;;;;;;17.50;97.80;;;;;;5053667;28;19956;-66
2021/05/28 10:57:29;;;;;;;;;;;17.90;97.40;;;;;;5038587;28;19925;-65
2021/05/28 10:59:58;;;;;;;;;;;16.40;97.80;;;;;;5035284;28;19925;-65
2021/05/28 11:02:45;;;;;;;;;;;16.80;97.50;;;;;;5035901;28;19929;-64
2021/05/28 11:05:15;;;;;;;;;;;17.40;97.40;;;;;;5036269;28;19929;-65
2021/05/28 11:07:44;;;;;;;;;;;17.40;96.10;;;;;;5035972;28;19956;-65
2021/05/28 11:10:24;;;;;;;;;;;17.20;97.10;;;;;;5036261;28;20020;-66
2021/05/28 11:12:53;;;;;;;;;;;17.00;97.70;;;;;;5035316;28;19932;-65
2021/05/28 11:15:26;;;;;;;;;;;17.00;97.10;;;;;;5034560;28;19925;-66
2021/05/28 11:17:56;;;;;;;;;;;17.40;96.10;;;;;;5035870;28;20012;-66
2021/05/28 11:20:32;;;;;;;;;;;17.70;96.00;;;;;;5054802;28;19932;-65
2021/05/28 11:23:02;;;;;;;;;;;17.80;95.70;;;;;;5055225;28;19925;-65
2021/05/28 11:25:32;;;;;;;;;;;16.70;96.20;;;;;;5055563;28;19931;-65
2021/05/28 11:28:05;;;;;;;;;;;15.80;97.60;;;;;;5055594;28;19925;-65
2021/05/28 11:30:59;;;;;;;;;;;15.70;98.90;;;;;;5054649;28;19925;-65
2021/05/28 11:33:41;;;;;;;;;;;15.60;98.80;;;;;;5056412;28;19944;-65
2021/05/28 11:36:20;;;;;;;;;;;15.90;98.20;;;;;;5056317;28;19932;-65
2021/05/28 11:38:54;;;;;;;;;;;15.80;98.00;;;;;;5055618;28;20020;-65
2021/05/28 11:41:22;;;;;;;;;;;16.10;98.00;;;;;;5056364;28;19929;-66
2021/05/28 11:43:50;;;;;;;;;;;15.70;98.50;;;;;;5055414;28;19957;-66
2021/05/28 11:46:23;;;;;;;;;;;15.90;98.40;;;;;;5055375;28;19925;-67
2021/05/28 11:48:52;;;;;;;;;;;16.00;98.50;;;;;;5055449;28;19924;-65
2021/05/28 11:51:20;;;;;;;;;;;16.00;98.50;;;;;;5053966;28;19925;-65
2021/05/28 11:53:48;;;;;;;;;;;16.00;99.00;;;;;;5057101;28;19925;-64
2021/05/28 11:56:16;;;;;;;;;;;15.80;98.80;;;;;;5055303;28;19935;-65
2021/05/28 11:58:49;;;;;;;;;;;16.10;98.50;;;;;;5054677;28;19975;-64
2021/05/28 12:01:19;;;;;;;;;;;16.30;98.10;;;;;;5054082;28;19956;-65
2021/05/28 12:03:50;;;;;;;;;;;16.60;97.90;;;;;;5055707;28;19929;-65
2021/05/28 12:06:20;;;;;;;;;;;16.70;97.60;;;;;;5055766;28;20108;-64
2021/05/28 12:08:48;;;;;;;;;;;16.00;97.20;;;;;;5055259;28;19924;-64
2021/05/28 12:11:16;;;;;;;;;;;15.40;98.70;;;;;;5055120;28;19971;-65
2021/05/28 12:13:44;;;;;;;;;;;15.20;99.60;;;;;;5055628;28;19925;-65
2021/05/28 12:16:16;;;;;;;;;;;15.30;99.70;;;;;;5053441;28;19932;-65
2021/05/28 12:18:46;;;;;;;;;;;15.50;99.40;;;;;;5035338;28;19943;-65
2021/05/28 12:21:16;;;;;;;;;;;16.00;99.30;;;;;;5044715;28;19913;-67
2021/05/28 12:23:45;;;;;;;;;;;16.10;99.20;;;;;;5052078;28;19925;-65
2021/05/28 12:26:16;;;;;;;;;;;16.40;97.20;;;;;;5035480;28;19925;-64
2021/05/28 12:28:45;;;;;;;;;;;16.80;96.80;;;;;;5035602;28;19933;-65
2021/05/28 12:31:20;;;;;;;;;;;16.60;95.80;;;;;;5027821;28;19989;-67
2021/05/28 12:33:51;;;;;;;;;;;17.10;96.10;;;;;;5033975;28;20016;-65
2021/05/28 12:36:25;;;;;;;;;;;17.40;95.40;;;;;;5033869;28;19956;-64
2021/05/28 12:38:55;;;;;;;;;;;17.20;95.40;;;;;;5054207;28;19975;-65
2021/05/28 12:41:23;;;;;;;;;;;17.60;95.80;;;;;;5054006;28;19925;-65
2021/05/28 12:43:52;;;;;;;;;;;18.00;94.60;;;;;;5053686;28;20346;-65
2021/05/28 12:46:22;;;;;;;;;;;18.40;92.80;;;;;;5053314;28;19931;-66
2021/05/28 12:48:50;;;;;;;;;;;18.30;92.30;;;;;;5053629;28;19932;-64
2021/05/28 12:51:19;;;;;;;;;;;18.30;92.00;;;;;;5053583;28;20345;-64
2021/05/28 12:53:47;;;;;;;;;;;18.20;92.50;;;;;;5053606;28;19925;-65
2021/05/28 12:56:22;;;;;;;;;;;17.80;92.30;;;;;;5053933;28;19924;-65
2021/05/28 12:58:51;;;;;;;;;;;16.80;94.70;;;;;;5053592;28;20002;-65
2021/05/28 13:01:20;;;;;;;;;;;17.10;95.50;;;;;;5053205;28;19925;-65
2021/05/28 13:03:50;;;;;;;;;;;17.30;95.20;;;;;;5053613;28;19929;-65
2021/05/28 13:06:39;;;;;;;;;;;17.50;94.60;;;;;;5054752;28;19925;-65
2021/05/28 13:09:08;;;;;;;;;;;17.20;94.50;;;;;;5054198;28;19932;-67
2021/05/28 13:11:48;;;;;;;;;;;17.40;95.20;;;;;;5055642;28;19928;-64
2021/05/28 13:14:18;;;;;;;;;;;17.10;94.90;;;;;;5055984;28;20406;-65
2021/05/28 13:16:47;;;;;;;;;;;17.00;94.40;;;;;;5054203;28;20449;-65
2021/05/28 13:19:15;;;;;;;;;;;17.10;94.90;;;;;;5057498;28;19925;-68
2021/05/28 13:21:53;;;;;;;;;;;17.00;94.80;;;;;;5058894;28;19925;-65
2021/05/28 13:24:37;;;;;;;;;;;16.90;95.00;;;;;;5071836;28;19944;-65
2021/05/28 13:27:11;;;;;;;;;;;16.80;95.60;;;;;;5070010;28;19968;-66
2021/05/28 13:29:50;;;;;;;;;;;16.90;95.40;;;;;;5066424;28;20000;-66
2021/05/28 13:32:25;;;;;;;;;;;17.00;95.60;;;;;;5067788;28;19967;-67
2021/05/28 13:34:53;;;;;;;;;;;17.10;94.70;;;;;;5068585;28;20387;-67
2021/05/28 13:37:22;;;;;;;;;;;17.20;93.60;;;;;;5066943;28;20338;-66
2021/05/28 13:42:46;;;;;;;;;;;16.80;94.30;;;;;;5057824;28;19929;-66
2021/05/28 13:45:15;;;;;;;;;;;16.80;94.60;;;;;;5058839;28;19978;-66
2021/05/28 13:47:43;;;;;;;;;;;17.20;93.60;;;;;;5058173;28;19928;-65
2021/05/28 13:50:13;;;;;;;;;;;17.50;93.30;;;;;;5057738;28;19970;-65
2021/05/28 13:52:41;;;;;;;;;;;17.50;92.80;;;;;;5058375;28;19951;-65
2021/05/28 13:55:11;;;;;;;;;;;17.20;93.40;;;;;;5056758;28;19925;-66
2021/05/28 13:57:39;;;;;;;;;;;16.80;94.10;;;;;;5056888;28;19932;-66
2021/05/28 14:00:09;;;;;;;;;;;16.40;94.70;;;;;;5057048;28;20023;-65
2021/05/28 14:02:42;;;;;;;;;;;16.00;94.60;;;;;;5056842;28;19925;-65
2021/05/28 14:05:10;;;;;;;;;;;15.90;95.00;;;;;;5057410;28;20359;-66
2021/05/28 14:07:38;;;;;;;;;;;16.10;94.90;;;;;;5056827;28;19925;-65
2021/05/28 14:10:08;;;;;;;;;;;16.10;94.30;;;;;;5057355;28;20442;-65
2021/05/28 14:13:01;;;;;;;;;;;16.50;94.60;;;;;;5057170;28;19932;-65
2021/05/28 14:15:29;;;;;;;;;;;16.30;93.10;;;;;;5055676;28;20308;-65
2021/05/28 14:17:57;;;;;;;;;;;16.40;94.00;;;;;;5057461;28;19925;-65
2021/05/28 14:20:25;;;;;;;;;;;16.60;93.60;;;;;;5058955;28;20327;-65
2021/05/28 14:22:53;;;;;;;;;;;16.90;93.40;;;;;;5055853;28;19925;-65
2021/05/28 14:25:25;;;;;;;;;;;16.80;92.60;;;;;;5057495;28;20304;-67
2021/05/28 14:27:53;;;;;;;;;;;17.10;92.60;;;;;;5056623;28;20023;-68
2021/05/28 14:30:22;;;;;;;;;;;17.50;92.50;;;;;;5055686;28;20160;-65
2021/05/28 14:32:52;;;;;;;;;;;17.30;91.10;;;;;;5055103;28;19925;-65
2021/05/28 14:35:20;;;;;;;;;;;16.80;90.90;;;;;;5054966;28;19925;-65
2021/05/28 14:37:48;;;;;;;;;;;17.00;91.50;;;;;;5054851;28;20012;-65
2021/05/28 14:40:18;;;;;;;;;;;16.60;91.30;;;;;;5055739;28;20307;-68
2021/05/28 14:42:46;;;;;;;;;;;16.60;92.50;;;;;;5055956;28;20280;-65
2021/05/28 14:45:14;;;;;;;;;;;16.40;92.70;;;;;;5055206;28;19963;-68
2021/05/28 14:47:43;;;;;;;;;;;16.20;91.70;;;;;;5056541;28;19925;-65
2021/05/28 14:50:13;;;;;;;;;;;16.30;92.50;;;;;;5056461;28;19929;-68
2021/05/28 14:52:41;;;;;;;;;;;16.20;91.70;;;;;;5056043;28;19955;-64
2021/05/28 14:55:10;;;;;;;;;;;16.10;91.60;;;;;;5055035;28;19924;-66